Time;durP1;ratioP1;P1;durP2;ratioP2;P2;SDS_P1;SDS_P2;PMS_P1;PMS_P2;Temp;Humidity;BMP_temperature;BMP_pressure;BME280_temperature;BME280_humidity;BME280_pressure;Samples;Min_cycle;Max_cycle;Signal;HPM_P1;HPM_P2
2023/05/08 00:00:20;;;;;;;3.10;0.73;;;;;;;;;;4994384;28;20256;-75
2023/05/08 00:02:46;;;;;;;2.58;0.77;;;;;;;;;;4986026;28;20113;-75
2023/05/08 00:05:11;;;;;;;4.30;0.80;;;;;;;;;;5013500;28;20022;-75
2023/05/08 00:07:36;;;;;;;1.37;0.77;;;;;;;;;;5011985;28;20267;-75
2023/05/08 00:10:02;;;;;;;1.88;0.50;;;;;;;;;;5011940;28;20305;-75
2023/05/08 00:12:27;;;;;;;2.13;0.75;;;;;;;;;;5006371;28;20019;-75
2023/05/08 00:14:53;;;;;;;1.85;0.90;;;;;;;;;;4994208;28;20030;-75
2023/05/08 00:17:18;;;;;;;2.30;0.90;;;;;;;;;;4997552;28;20076;-75
2023/05/08 00:19:43;;;;;;;1.00;0.47;;;;;;;;;;5013530;28;20029;-75
2023/05/08 00:22:08;;;;;;;1.63;0.90;;;;;;;;;;5011496;28;20118;-75
2023/05/08 00:24:33;;;;;;;2.10;0.60;;;;;;;;;;4996840;28;20291;-75
2023/05/08 00:26:59;;;;;;;2.27;0.83;;;;;;;;;;5012219;28;20267;-75
2023/05/08 00:29:24;;;;;;;0.80;0.53;;;;;;;;;;4993824;28;20334;-75
2023/05/08 00:31:49;;;;;;;1.40;0.80;;;;;;;;;;4976143;28;20264;-75
2023/05/08 00:34:14;;;;;;;1.60;0.60;;;;;;;;;;5011317;28;20267;-75
2023/05/08 00:36:39;;;;;;;0.97;0.60;;;;;;;;;;5013183;28;20263;-75
2023/05/08 00:39:05;;;;;;;1.97;0.87;;;;;;;;;;4997027;28;20286;-75
2023/05/08 00:41:30;;;;;;;1.60;0.80;;;;;;;;;;4978501;28;20781;-75
2023/05/08 00:43:55;;;;;;;1.10;0.50;;;;;;;;;;5006252;28;20626;-75
2023/05/08 00:46:21;;;;;;;1.83;0.93;;;;;;;;;;4993884;28;20093;-75
2023/05/08 00:48:46;;;;;;;3.17;0.93;;;;;;;;;;5013181;28;20426;-75
2023/05/08 00:51:12;;;;;;;2.50;0.70;;;;;;;;;;5013056;28;20022;-75
2023/05/08 00:53:38;;;;;;;1.33;0.60;;;;;;;;;;4994207;28;20449;-75
2023/05/08 00:56:04;;;;;;;2.28;0.55;;;;;;;;;;5003391;28;20033;-75
2023/05/08 00:58:30;;;;;;;0.77;0.43;;;;;;;;;;4995572;28;20033;-75
2023/05/08 01:00:56;;;;;;;1.27;0.50;;;;;;;;;;4993277;28;20026;-75
2023/05/08 01:03:22;;;;;;;1.88;0.80;;;;;;;;;;5008211;28;20022;-75
2023/05/08 01:05:47;;;;;;;0.77;0.50;;;;;;;;;;5000677;28;20026;-75
2023/05/08 01:08:13;;;;;;;2.40;0.70;;;;;;;;;;4992817;28;20109;-75
2023/05/08 01:11:05;;;;;;;1.17;0.70;;;;;;;;;;4993197;28;20431;-75
2023/05/08 01:13:40;;;;;;;1.48;0.73;;;;;;;;;;4992500;28;20026;-75
2023/05/08 01:16:16;;;;;;;2.08;0.70;;;;;;;;;;4998273;28;20105;-75
2023/05/08 01:18:46;;;;;;;1.85;0.70;;;;;;;;;;4992523;28;20096;-75
2023/05/08 01:21:41;;;;;;;2.45;0.88;;;;;;;;;;5006092;28;20028;-75
2023/05/08 01:24:06;;;;;;;1.63;0.80;;;;;;;;;;4995002;28;20018;-75
2023/05/08 01:27:06;;;;;;;1.53;0.93;;;;;;;;;;4995307;28;20036;-75
2023/05/08 01:29:34;;;;;;;1.25;0.63;;;;;;;;;;4932377;29;20122;-75
2023/05/08 01:32:04;;;;;;;1.85;0.75;;;;;;;;;;4981250;28;20030;-75
2023/05/08 01:34:31;;;;;;;3.25;1.00;;;;;;;;;;5005358;28;20468;-75
2023/05/08 01:36:56;;;;;;;1.90;0.90;;;;;;;;;;4993924;28;20023;-75
2023/05/08 01:39:27;;;;;;;0.90;0.60;;;;;;;;;;4992791;28;20029;-75
2023/05/08 01:41:57;;;;;;;2.28;0.68;;;;;;;;;;5009100;28;20044;-75
2023/05/08 01:44:27;;;;;;;0.82;0.60;;;;;;;;;;5009822;28;20034;-75
2023/05/08 01:46:52;;;;;;;1.00;0.63;;;;;;;;;;4993417;28;20038;-75
2023/05/08 01:49:22;;;;;;;1.80;0.70;;;;;;;;;;4992299;28;20417;-75
2023/05/08 01:51:52;;;;;;;1.85;0.68;;;;;;;;;;4989618;28;20384;-75
2023/05/08 01:54:21;;;;;;;1.92;0.65;;;;;;;;;;5011929;28;20049;-75
2023/05/08 01:56:47;;;;;;;2.10;0.70;;;;;;;;;;4998235;28;20032;-75
2023/05/08 01:59:14;;;;;;;1.45;0.82;;;;;;;;;;4992300;28;20042;-75
2023/05/08 02:01:40;;;;;;;2.13;0.70;;;;;;;;;;5002377;28;20014;-75
2023/05/08 02:04:06;;;;;;;1.10;0.75;;;;;;;;;;5011896;28;20101;-75
2023/05/08 02:06:32;;;;;;;1.10;0.57;;;;;;;;;;5005130;28;20014;-75
2023/05/08 02:08:58;;;;;;;1.92;0.90;;;;;;;;;;5011788;28;20022;-75
2023/05/08 02:11:24;;;;;;;3.80;0.82;;;;;;;;;;5003043;28;20389;-75
2023/05/08 02:13:50;;;;;;;0.93;0.55;;;;;;;;;;4992354;28;20025;-75
2023/05/08 02:16:15;;;;;;;0.80;0.60;;;;;;;;;;4998819;28;20030;-75
2023/05/08 02:18:43;;;;;;;3.13;1.08;;;;;;;;;;5011827;28;20018;-75
2023/05/08 02:21:10;;;;;;;1.13;0.80;;;;;;;;;;4997520;28;20488;-75
2023/05/08 02:23:36;;;;;;;1.17;0.70;;;;;;;;;;4992239;28;20027;-75
2023/05/08 02:26:02;;;;;;;0.75;0.55;;;;;;;;;;5004167;28;20113;-75
2023/05/08 02:28:28;;;;;;;3.15;0.80;;;;;;;;;;5014220;28;20048;-75
2023/05/08 02:30:55;;;;;;;1.75;0.80;;;;;;;;;;5014048;28;20483;-75
2023/05/08 02:33:21;;;;;;;1.02;0.65;;;;;;;;;;5015688;28;20527;-75
2023/05/08 02:35:49;;;;;;;1.20;0.80;;;;;;;;;;5011902;28;20030;-75
2023/05/08 02:38:15;;;;;;;1.88;0.68;;;;;;;;;;5015010;28;20464;-75
2023/05/08 02:40:44;;;;;;;1.55;0.73;;;;;;;;;;5007798;28;20381;-75
2023/05/08 02:43:09;;;;;;;1.05;0.57;;;;;;;;;;4996925;28;20038;-75
2023/05/08 02:45:40;;;;;;;1.20;0.60;;;;;;;;;;5005910;28;20022;-75
2023/05/08 02:48:10;;;;;;;1.30;0.70;;;;;;;;;;5015016;28;20346;-75
2023/05/08 02:50:41;;;;;;;1.35;0.77;;;;;;;;;;5012155;28;20095;-75
2023/05/08 02:53:09;;;;;;;3.60;0.90;;;;;;;;;;5015337;28;20100;-75
2023/05/08 02:55:39;;;;;;;1.80;0.70;;;;;;;;;;5005781;28;20038;-75
2023/05/08 02:58:17;;;;;;;1.15;0.40;;;;;;;;;;4996222;28;20495;-75
2023/05/08 03:00:52;;;;;;;1.10;0.68;;;;;;;;;;5004839;28;20114;-75
2023/05/08 03:03:18;;;;;;;2.22;0.65;;;;;;;;;;4995168;28;20022;-75
2023/05/08 03:05:46;;;;;;;2.47;0.87;;;;;;;;;;5004369;28;20105;-75
2023/05/08 03:08:17;;;;;;;1.67;0.60;;;;;;;;;;5014792;28;20676;-75
2023/05/08 03:10:43;;;;;;;1.67;0.70;;;;;;;;;;5001292;28;20022;-75
2023/05/08 03:13:09;;;;;;;1.35;0.65;;;;;;;;;;4995367;28;20022;-75
2023/05/08 03:15:37;;;;;;;1.77;0.90;;;;;;;;;;5005083;28;20018;-75
2023/05/08 03:18:06;;;;;;;3.30;0.80;;;;;;;;;;5014951;28;20025;-75
2023/05/08 03:20:35;;;;;;;1.00;0.73;;;;;;;;;;5005100;28;20030;-75
2023/05/08 03:23:01;;;;;;;1.60;0.70;;;;;;;;;;4977609;28;20030;-75
2023/05/08 03:25:28;;;;;;;1.05;0.70;;;;;;;;;;5001615;28;20026;-75
2023/05/08 03:27:54;;;;;;;1.27;0.52;;;;;;;;;;4977191;28;20019;-75
2023/05/08 03:30:19;;;;;;;1.42;0.70;;;;;;;;;;4983462;28;20120;-75
2023/05/08 03:32:45;;;;;;;1.15;0.55;;;;;;;;;;5014703;28;20022;-75
2023/05/08 03:35:10;;;;;;;2.28;0.98;;;;;;;;;;5008613;28;20026;-75
2023/05/08 03:37:36;;;;;;;1.20;0.52;;;;;;;;;;4994582;28;20523;-75
2023/05/08 03:40:02;;;;;;;1.55;0.73;;;;;;;;;;4996265;28;20030;-75
2023/05/08 03:42:29;;;;;;;2.03;0.90;;;;;;;;;;5014350;28;20018;-75
2023/05/08 03:44:56;;;;;;;1.30;0.60;;;;;;;;;;5012191;28;20026;-75
2023/05/08 03:47:24;;;;;;;1.75;0.88;;;;;;;;;;5014402;28;20325;-75
2023/05/08 03:49:50;;;;;;;1.15;0.50;;;;;;;;;;5010829;28;20041;-75
2023/05/08 03:52:15;;;;;;;1.60;0.68;;;;;;;;;;5014153;28;20010;-75
2023/05/08 03:54:41;;;;;;;3.33;0.90;;;;;;;;;;5007575;28;20104;-75
2023/05/08 03:57:06;;;;;;;1.42;0.77;;;;;;;;;;4994398;28;20029;-75
2023/05/08 03:59:31;;;;;;;2.08;0.60;;;;;;;;;;4998518;28;20428;-75
2023/05/08 04:02:09;;;;;;;1.60;0.93;;;;;;;;;;5014243;28;20053;-75
2023/05/08 04:04:41;;;;;;;1.70;0.70;;;;;;;;;;5010643;28;20018;-75
2023/05/08 04:07:06;;;;;;;;;;;;;;;;;;5014052;28;20018;-75
2023/05/08 04:09:34;;;;;;;2.53;0.80;;;;;;;;;;5010319;28;19925;-75
2023/05/08 04:12:02;;;;;;;1.23;0.60;;;;;;;;;;4994177;28;20022;-75
2023/05/08 04:14:30;;;;;;;1.48;0.80;;;;;;;;;;4996033;28;20034;-75
2023/05/08 04:17:00;;;;;;;1.70;0.90;;;;;;;;;;5013698;28;20022;-75
2023/05/08 04:19:27;;;;;;;0.82;0.70;;;;;;;;;;5001361;28;20075;-75
2023/05/08 04:21:54;;;;;;;1.38;0.80;;;;;;;;;;5012356;28;20026;-75
2023/05/08 04:24:21;;;;;;;2.90;1.02;;;;;;;;;;5013365;28;20080;-75
2023/05/08 04:26:46;;;;;;;1.65;0.75;;;;;;;;;;4994191;28;20022;-75
2023/05/08 04:29:12;;;;;;;3.55;0.95;;;;;;;;;;4993870;28;20109;-75
2023/05/08 04:31:38;;;;;;;1.83;0.65;;;;;;;;;;5011020;28;20022;-75
2023/05/08 04:34:04;;;;;;;1.48;0.77;;;;;;;;;;5010298;28;20093;-75
2023/05/08 04:36:30;;;;;;;2.85;0.80;;;;;;;;;;5005523;28;20018;-75
2023/05/08 04:38:55;;;;;;;1.48;0.70;;;;;;;;;;5011863;28;20030;-75
2023/05/08 04:41:20;;;;;;;2.38;0.73;;;;;;;;;;4993670;28;20023;-75
2023/05/08 04:43:45;;;;;;;3.95;0.80;;;;;;;;;;4993682;28;20023;-75
2023/05/08 04:46:11;;;;;;;0.95;0.70;;;;;;;;;;4985249;28;20104;-75
2023/05/08 04:48:36;;;;;;;2.33;0.90;;;;;;;;;;4993446;28;20030;-75
2023/05/08 04:51:01;;;;;;;1.95;0.63;;;;;;;;;;5008996;28;20428;-74
2023/05/08 04:53:26;;;;;;;3.23;0.80;;;;;;;;;;5013546;28;20025;-75
2023/05/08 04:55:52;;;;;;;0.70;0.65;;;;;;;;;;4999285;28;20291;-75
2023/05/08 04:58:17;;;;;;;1.80;0.70;;;;;;;;;;5012797;28;20105;-75
2023/05/08 05:00:42;;;;;;;1.20;0.67;;;;;;;;;;4999766;28;20026;-75
2023/05/08 05:03:07;;;;;;;4.23;0.80;;;;;;;;;;4975762;28;20359;-75
2023/05/08 05:05:34;;;;;;;1.07;0.60;;;;;;;;;;5004063;28;20271;-75
2023/05/08 05:07:59;;;;;;;1.17;0.60;;;;;;;;;;5012644;28;20568;-75
2023/05/08 05:10:24;;;;;;;1.10;0.82;;;;;;;;;;5002990;28;20660;-75
2023/05/08 05:12:49;;;;;;;3.00;0.52;;;;;;;;;;4995481;28;20023;-75
2023/05/08 05:15:15;;;;;;;2.47;0.70;;;;;;;;;;4999992;28;20025;-75
2023/05/08 05:17:40;;;;;;;0.60;0.40;;;;;;;;;;5012549;28;20244;-75
2023/05/08 05:20:07;;;;;;;2.00;0.77;;;;;;;;;;4989675;28;20026;-75
2023/05/08 05:22:32;;;;;;;3.38;1.02;;;;;;;;;;4992960;28;20268;-75
2023/05/08 05:24:57;;;;;;;1.00;0.63;;;;;;;;;;4993907;28;20542;-75
2023/05/08 05:27:23;;;;;;;1.00;0.67;;;;;;;;;;5005345;28;20928;-75
2023/05/08 05:29:48;;;;;;;1.38;0.63;;;;;;;;;;5002044;28;20840;-75
2023/05/08 05:32:14;;;;;;;1.40;0.60;;;;;;;;;;4992773;28;20014;-75
2023/05/08 05:34:39;;;;;;;1.30;0.70;;;;;;;;;;5000662;28;20032;-75
2023/05/08 05:37:04;;;;;;;1.77;0.75;;;;;;;;;;4997899;28;20384;-75
2023/05/08 05:39:29;;;;;;;3.17;0.93;;;;;;;;;;4997883;28;20022;-75
2023/05/08 05:41:54;;;;;;;1.60;0.80;;;;;;;;;;5012423;28;20072;-75
2023/05/08 05:44:20;;;;;;;1.63;0.70;;;;;;;;;;5007823;28;20302;-75
2023/05/08 05:46:45;;;;;;;2.15;0.88;;;;;;;;;;4992520;28;20252;-75
2023/05/08 05:49:11;;;;;;;2.58;0.70;;;;;;;;;;4994265;28;20108;-75
2023/05/08 05:51:36;;;;;;;1.73;0.70;;;;;;;;;;5011922;28;20021;-75
2023/05/08 05:54:01;;;;;;;1.97;0.60;;;;;;;;;;5010237;28;20387;-74
2023/05/08 05:56:26;;;;;;;2.63;0.87;;;;;;;;;;4992428;28;20252;-75
2023/05/08 05:58:52;;;;;;;2.40;0.93;;;;;;;;;;4992338;28;20572;-75
2023/05/08 06:01:17;;;;;;;1.73;0.80;;;;;;;;;;5010166;28;20101;-75
2023/05/08 06:03:42;;;;;;;1.47;0.80;;;;;;;;;;5011752;28;20338;-75
2023/05/08 06:06:07;;;;;;;2.35;1.20;;;;;;;;;;4996362;28;20338;-75
2023/05/08 06:08:33;;;;;;;1.20;0.70;;;;;;;;;;4992139;28;20175;-75
2023/05/08 06:10:58;;;;;;;1.42;0.85;;;;;;;;;;5006397;28;20275;-75
2023/05/08 06:13:24;;;;;;;3.47;0.93;;;;;;;;;;5010529;28;20472;-75
2023/05/08 06:15:49;;;;;;;0.85;0.70;;;;;;;;;;4974923;28;20014;-75
2023/05/08 06:18:14;;;;;;;1.15;0.80;;;;;;;;;;4992240;28;20019;-75
2023/05/08 06:20:40;;;;;;;2.03;0.73;;;;;;;;;;5009422;28;20114;-75
2023/05/08 06:23:05;;;;;;;1.85;0.95;;;;;;;;;;5011817;28;20472;-75
2023/05/08 06:25:30;;;;;;;0.90;0.63;;;;;;;;;;5009889;28;20022;-75
2023/05/08 06:27:56;;;;;;;1.57;0.90;;;;;;;;;;5005080;28;20094;-75
2023/05/08 06:30:21;;;;;;;1.67;0.80;;;;;;;;;;4992003;28;20299;-74
2023/05/08 06:32:46;;;;;;;2.55;0.70;;;;;;;;;;4996172;28;20018;-75
2023/05/08 06:35:12;;;;;;;2.20;1.00;;;;;;;;;;5009264;28;20498;-75
2023/05/08 06:37:37;;;;;;;1.17;0.70;;;;;;;;;;4995083;28;20299;-75
2023/05/08 06:40:02;;;;;;;1.38;0.73;;;;;;;;;;5011924;28;20018;-75
2023/05/08 06:42:28;;;;;;;0.77;0.68;;;;;;;;;;4993194;28;20025;-75
2023/05/08 06:44:53;;;;;;;1.42;0.60;;;;;;;;;;4991901;28;20401;-75
2023/05/08 06:47:18;;;;;;;0.87;0.50;;;;;;;;;;5010296;28;20083;-74
2023/05/08 06:49:43;;;;;;;1.48;0.77;;;;;;;;;;5010578;28;20374;-75
2023/05/08 06:52:09;;;;;;;2.10;0.97;;;;;;;;;;4993907;28;20616;-75
2023/05/08 06:54:34;;;;;;;1.40;0.80;;;;;;;;;;4991959;28;20726;-75
2023/05/08 06:57:00;;;;;;;1.25;0.45;;;;;;;;;;4993775;28;20267;-75
2023/05/08 06:59:25;;;;;;;1.25;0.70;;;;;;;;;;5002478;28;20431;-75
2023/05/08 07:01:50;;;;;;;2.47;0.85;;;;;;;;;;4993838;28;20026;-75
2023/05/08 07:04:16;;;;;;;1.73;0.50;;;;;;;;;;4996739;28;20535;-75
2023/05/08 07:06:41;;;;;;;0.60;0.50;;;;;;;;;;5003939;28;20057;-75
2023/05/08 07:09:06;;;;;;;5.23;0.90;;;;;;;;;;5000560;28;20035;-75
2023/05/08 07:11:31;;;;;;;2.63;0.90;;;;;;;;;;5003712;28;20267;-75
2023/05/08 07:13:57;;;;;;;9.07;1.05;;;;;;;;;;5003166;28;20255;-76
2023/05/08 07:16:22;;;;;;;5.63;0.87;;;;;;;;;;4998775;28;20029;-75
2023/05/08 07:18:47;;;;;;;7.63;0.90;;;;;;;;;;4995493;28;20264;-76
2023/05/08 07:21:14;;;;;;;6.55;1.02;;;;;;;;;;5005973;28;20676;-76
2023/05/08 07:23:39;;;;;;;14.70;1.10;;;;;;;;;;5008401;28;20022;-76
2023/05/08 07:26:05;;;;;;;4.57;1.30;;;;;;;;;;5013711;28;20099;-76
2023/05/08 07:28:30;;;;;;;9.00;1.40;;;;;;;;;;5002144;28;20314;-76
2023/05/08 07:30:56;;;;;;;15.03;1.33;;;;;;;;;;4994697;28;20330;-77
2023/05/08 07:33:21;;;;;;;6.07;1.92;;;;;;;;;;4996877;28;20730;-75
2023/05/08 07:35:46;;;;;;;11.95;1.00;;;;;;;;;;4994432;28;20032;-75
2023/05/08 07:38:12;;;;;;;11.45;1.17;;;;;;;;;;4994745;28;20053;-76
2023/05/08 07:40:37;;;;;;;7.33;1.47;;;;;;;;;;4994729;28;20019;-76
2023/05/08 07:43:02;;;;;;;7.38;1.40;;;;;;;;;;5013994;28;20258;-76
2023/05/08 07:45:27;;;;;;;16.45;1.40;;;;;;;;;;5033414;28;20026;-77
2023/05/08 07:47:54;;;;;;;16.02;2.28;;;;;;;;;;5033818;28;20014;-76
2023/05/08 07:50:19;;;;;;;15.68;1.60;;;;;;;;;;5023615;28;20392;-76
2023/05/08 07:52:45;;;;;;;14.07;1.73;;;;;;;;;;5013823;28;20017;-76
2023/05/08 07:55:10;;;;;;;12.45;2.25;;;;;;;;;;5013910;28;20499;-74
2023/05/08 07:57:38;;;;;;;10.80;2.10;;;;;;;;;;5013249;28;20029;-74
2023/05/08 08:00:04;;;;;;;15.68;1.67;;;;;;;;;;5013690;28;20267;-75
2023/05/08 08:02:29;;;;;;;8.32;1.88;;;;;;;;;;5013711;28;20022;-75
2023/05/08 08:04:55;;;;;;;8.40;1.83;;;;;;;;;;5010091;28;20559;-74
2023/05/08 08:07:20;;;;;;;11.33;1.30;;;;;;;;;;5013492;28;20100;-74
2023/05/08 08:09:45;;;;;;;9.73;1.50;;;;;;;;;;5001252;28;20302;-75
2023/05/08 08:12:11;;;;;;;4.57;0.95;;;;;;;;;;4994731;28;20473;-75
2023/05/08 08:14:36;;;;;;;7.55;1.73;;;;;;;;;;5008291;28;20103;-76
2023/05/08 08:17:01;;;;;;;4.90;1.80;;;;;;;;;;4996543;28;20022;-76
2023/05/08 08:19:26;;;;;;;7.47;1.47;;;;;;;;;;4997634;28;20089;-77
2023/05/08 08:21:52;;;;;;;7.63;1.40;;;;;;;;;;5028059;28;20671;-75
2023/05/08 08:24:17;;;;;;;5.63;1.33;;;;;;;;;;5026390;28;20089;-76
2023/05/08 08:26:42;;;;;;;8.57;1.48;;;;;;;;;;5008595;28;20252;-75
2023/05/08 08:29:07;;;;;;;5.70;1.27;;;;;;;;;;4993684;28;20535;-76
2023/05/08 08:31:32;;;;;;;4.40;1.27;;;;;;;;;;4993321;28;20014;-76
2023/05/08 08:33:58;;;;;;;5.43;1.07;;;;;;;;;;4994070;28;20283;-76
2023/05/08 08:36:23;;;;;;;4.63;0.85;;;;;;;;;;4981176;28;20649;-77
2023/05/08 08:38:49;;;;;;;3.25;1.30;;;;;;;;;;4983543;28;20049;-76
2023/05/08 08:41:14;;;;;;;5.75;1.13;;;;;;;;;;5001490;28;20108;-77
2023/05/08 08:43:42;;;;;;;10.95;1.38;;;;;;;;;;5012900;28;20029;-77
2023/05/08 08:46:14;;;;;;;5.50;1.90;;;;;;;;;;4993243;28;20014;-76
2023/05/08 08:48:43;;;;;;;4.93;1.15;;;;;;;;;;4994187;28;20453;-77
2023/05/08 08:51:11;;;;;;;5.80;1.50;;;;;;;;;;5006833;28;20391;-76
2023/05/08 08:53:41;;;;;;;4.10;1.05;;;;;;;;;;5006454;28;20014;-76
2023/05/08 08:56:07;;;;;;;2.97;1.10;;;;;;;;;;5009456;28;20495;-75
2023/05/08 08:58:36;;;;;;;5.30;0.75;;;;;;;;;;5012784;28;20014;-75
2023/05/08 09:01:04;;;;;;;8.23;1.10;;;;;;;;;;5010602;28;20480;-76
2023/05/08 09:03:30;;;;;;;7.43;1.25;;;;;;;;;;5012477;28;20087;-76
2023/05/08 09:05:58;;;;;;;5.25;0.80;;;;;;;;;;5012443;28;20448;-77
2023/05/08 09:08:24;;;;;;;3.88;0.77;;;;;;;;;;5007546;28;20061;-76
2023/05/08 09:10:49;;;;;;;3.38;0.70;;;;;;;;;;5007502;28;20022;-76
2023/05/08 09:13:14;;;;;;;8.25;0.90;;;;;;;;;;5012564;28;20025;-74
2023/05/08 09:15:40;;;;;;;8.57;1.05;;;;;;;;;;5011298;28;20022;-74
2023/05/08 09:18:05;;;;;;;8.18;0.60;;;;;;;;;;5011785;28;20021;-74
2023/05/08 09:20:31;;;;;;;4.15;0.60;;;;;;;;;;5012458;28;20022;-74
2023/05/08 09:22:56;;;;;;;3.40;0.60;;;;;;;;;;5012171;28;20464;-74
2023/05/08 09:25:22;;;;;;;4.40;0.65;;;;;;;;;;5011347;28;20026;-74
2023/05/08 09:27:47;;;;;;;3.65;0.60;;;;;;;;;;5012331;28;20025;-74
2023/05/08 09:30:15;;;;;;;5.47;1.10;;;;;;;;;;5012309;28;20036;-76
2023/05/08 09:32:41;;;;;;;3.45;0.73;;;;;;;;;;4995147;28;20275;-76
2023/05/08 09:35:07;;;;;;;7.03;0.65;;;;;;;;;;4998079;28;20025;-77
2023/05/08 09:37:35;;;;;;;2.60;0.80;;;;;;;;;;5002413;28;20109;-76
2023/05/08 09:40:13;;;;;;;5.88;0.80;;;;;;;;;;4998913;28;20014;-76
2023/05/08 09:42:38;;;;;;;2.97;0.70;;;;;;;;;;4991497;28;20373;-76
2023/05/08 09:45:04;;;;;;;2.10;0.57;;;;;;;;;;5010092;28;20400;-76
2023/05/08 09:47:29;;;;;;;2.83;0.50;;;;;;;;;;5009079;28;20030;-76
2023/05/08 09:49:58;;;;;;;14.52;1.05;;;;;;;;;;5006770;28;20030;-74
2023/05/08 09:52:23;;;;;;;7.20;0.95;;;;;;;;;;4992243;28;20097;-75
2023/05/08 09:54:56;;;;;;;6.27;0.60;;;;;;;;;;4992704;28;20172;-75
2023/05/08 09:57:21;;;;;;;3.63;0.50;;;;;;;;;;4991209;28;20659;-75
2023/05/08 09:59:46;;;;;;;1.70;0.50;;;;;;;;;;4994718;28;20025;-75
2023/05/08 10:02:15;;;;;;;1.20;0.43;;;;;;;;;;5008534;28;20097;-75
2023/05/08 10:04:40;;;;;;;4.40;0.63;;;;;;;;;;5009936;28;20843;-75
2023/05/08 10:07:05;;;;;;;10.60;0.65;;;;;;;;;;5010667;28;20022;-76
2023/05/08 10:09:30;;;;;;;5.35;0.80;;;;;;;;;;5009243;28;20030;-75
2023/05/08 10:11:56;;;;;;;1.95;0.63;;;;;;;;;;4991195;28;20089;-77
2023/05/08 10:14:21;;;;;;;6.63;0.57;;;;;;;;;;5003960;28;20415;-77
2023/05/08 10:16:48;;;;;;;5.68;0.70;;;;;;;;;;4995168;28;20085;-76
2023/05/08 10:19:17;;;;;;;3.25;0.50;;;;;;;;;;4990431;28;20034;-75
2023/05/08 10:21:46;;;;;;;2.33;0.55;;;;;;;;;;5007228;28;20503;-75
2023/05/08 10:24:13;;;;;;;3.47;0.50;;;;;;;;;;5009801;28;20026;-76
2023/05/08 10:26:40;;;;;;;4.40;0.95;;;;;;;;;;5009735;28;20484;-77
2023/05/08 10:29:07;;;;;;;6.80;0.75;;;;;;;;;;5010407;28;20476;-76
2023/05/08 10:31:37;;;;;;;9.15;0.63;;;;;;;;;;4995888;28;20503;-77
2023/05/08 10:34:04;;;;;;;2.95;0.60;;;;;;;;;;4992228;28;20034;-76
2023/05/08 10:36:30;;;;;;;9.38;0.68;;;;;;;;;;4999450;28;20037;-81
2023/05/08 10:38:58;;;;;;;1.75;0.50;;;;;;;;;;4990903;28;20022;-82
2023/05/08 10:41:24;;;;;;;4.68;0.50;;;;;;;;;;5000068;28;20041;-78
2023/05/08 10:43:50;;;;;;;1.60;0.60;;;;;;;;;;5011996;28;20087;-76
2023/05/08 10:46:33;;;;;;;3.92;0.57;;;;;;;;;;5010641;28;20057;-79
2023/05/08 10:49:17;;;;;;;6.15;0.90;;;;;;;;;;5013054;28;20113;-78
2023/05/08 10:51:54;;;;;;;6.97;0.90;;;;;;;;;;5004564;28;20027;-86
2023/05/08 10:54:46;;;;;;;8.85;1.05;;;;;;;;;;4997314;28;20535;-84
2023/05/08 10:57:11;;;;;;;5.03;0.75;;;;;;;;;;4976004;28;20293;-83
2023/05/08 10:59:36;;;;;;;6.63;0.57;;;;;;;;;;5004488;28;20324;-79
2023/05/08 11:02:06;;;;;;;2.35;0.70;;;;;;;;;;5014551;28;20487;-78
2023/05/08 11:04:31;;;;;;;7.70;0.55;;;;;;;;;;5007637;28;20557;-79
2023/05/08 11:06:57;;;;;;;1.95;0.52;;;;;;;;;;5014630;28;20103;-78
2023/05/08 11:09:43;;;;;;;6.88;1.23;;;;;;;;;;5010124;28;20049;-77
2023/05/08 11:12:17;;;;;;;6.18;0.77;;;;;;;;;;4996121;28;20030;-78
2023/05/08 11:14:52;;;;;;;8.38;0.95;;;;;;;;;;5000327;28;20021;-77
2023/05/08 11:17:22;;;;;;;5.88;0.75;;;;;;;;;;5003790;28;20030;-82
2023/05/08 11:19:57;;;;;;;5.60;0.85;;;;;;;;;;5010079;28;20391;-81
2023/05/08 11:22:24;;;;;;;7.35;0.98;;;;;;;;;;4999800;28;20042;-79
2023/05/08 11:24:55;;;;;;;3.50;1.13;;;;;;;;;;4995991;28;20029;-85
2023/05/08 11:27:37;;;;;;;3.88;0.45;;;;;;;;;;5006250;28;20026;-84
2023/05/08 11:30:21;;;;;;;3.10;0.73;;;;;;;;;;4994777;28;20038;-80
2023/05/08 11:33:02;;;;;;;1.88;0.60;;;;;;;;;;5005098;28;20034;-79
2023/05/08 11:35:42;;;;;;;2.77;0.80;;;;;;;;;;4997225;28;20014;-79
2023/05/08 11:38:18;;;;;;;4.90;0.57;;;;;;;;;;5005071;28;20033;-80
2023/05/08 11:40:43;;;;;;;5.93;1.00;;;;;;;;;;5003965;28;20089;-79
2023/05/08 11:43:27;;;;;;;3.10;0.80;;;;;;;;;;5000076;28;20129;-80
2023/05/08 11:45:53;;;;;;;3.60;0.68;;;;;;;;;;5007440;28;20018;-78
2023/05/08 11:48:19;;;;;;;2.25;0.50;;;;;;;;;;5001726;28;20029;-79
2023/05/08 11:50:45;;;;;;;3.17;0.77;;;;;;;;;;4996005;28;20022;-80
2023/05/08 11:53:10;;;;;;;3.75;0.90;;;;;;;;;;5002822;28;20106;-80
2023/05/08 11:55:36;;;;;;;6.07;0.90;;;;;;;;;;5000755;28;20121;-80
2023/05/08 11:58:01;;;;;;;3.15;0.88;;;;;;;;;;4997337;28;20105;-78
2023/05/08 12:00:26;;;;;;;3.13;1.00;;;;;;;;;;5005142;28;20018;-78
2023/05/08 12:02:51;;;;;;;5.03;0.93;;;;;;;;;;4998907;28;20263;-79
2023/05/08 12:05:24;;;;;;;2.97;0.70;;;;;;;;;;5003074;28;20283;-79
2023/05/08 12:07:50;;;;;;;2.40;0.85;;;;;;;;;;4992666;28;20030;-80
2023/05/08 12:10:15;;;;;;;2.80;0.70;;;;;;;;;;4993927;28;20041;-80
2023/05/08 12:12:42;;;;;;;1.88;0.70;;;;;;;;;;4990815;28;20309;-78
2023/05/08 12:15:08;;;;;;;1.98;0.93;;;;;;;;;;4999647;28;20042;-79
2023/05/08 12:17:34;;;;;;;2.30;0.63;;;;;;;;;;4993919;28;20420;-81
2023/05/08 12:20:16;;;;;;;2.80;0.63;;;;;;;;;;5006219;28;20014;-80
2023/05/08 12:22:42;;;;;;;3.97;0.47;;;;;;;;;;5008446;28;20101;-79
2023/05/08 12:25:08;;;;;;;1.38;0.50;;;;;;;;;;4997042;28;20030;-80
2023/05/08 12:27:35;;;;;;;4.13;0.90;;;;;;;;;;5003426;28;20400;-78
2023/05/08 12:30:03;;;;;;;2.42;0.55;;;;;;;;;;4999793;28;20384;-78
2023/05/08 12:32:29;;;;;;;2.40;0.80;;;;;;;;;;4999226;28;20033;-80
2023/05/08 12:34:54;;;;;;;1.67;0.60;;;;;;;;;;4999565;28;20384;-79
2023/05/08 12:37:25;;;;;;;1.10;0.40;;;;;;;;;;5013198;28;20033;-80
2023/05/08 12:39:50;;;;;;;1.20;0.50;;;;;;;;;;5009652;28;20026;-82
2023/05/08 12:42:16;;;;;;;0.68;0.50;;;;;;;;;;5007647;28;20389;-79
2023/05/08 12:44:48;;;;;;;4.03;1.40;;;;;;;;;;4993026;28;20057;-80
2023/05/08 12:47:13;;;;;;;0.52;0.40;;;;;;;;;;4993801;28;20267;-79
2023/05/08 12:49:39;;;;;;;2.47;0.50;;;;;;;;;;5000679;28;20361;-80
2023/05/08 12:52:04;;;;;;;0.80;0.32;;;;;;;;;;5002145;28;20272;-85
2023/05/08 12:54:36;;;;;;;3.65;0.70;;;;;;;;;;4995627;28;20045;-80
2023/05/08 12:57:07;;;;;;;1.55;0.40;;;;;;;;;;5013060;28;20026;-79
2023/05/08 12:59:32;;;;;;;5.97;0.47;;;;;;;;;;5012925;28;20463;-81
2023/05/08 13:01:57;;;;;;;2.17;0.35;;;;;;;;;;5000126;28;20026;-81
2023/05/08 13:04:23;;;;;;;3.87;0.40;;;;;;;;;;5012878;28;20159;-79
2023/05/08 13:06:55;;;;;;;0.85;0.40;;;;;;;;;;5006911;28;20350;-80
2023/05/08 13:09:21;;;;;;;6.00;0.77;;;;;;;;;;4995080;28;20030;-81
2023/05/08 13:11:47;;;;;;;4.05;0.82;;;;;;;;;;4991351;28;20026;-80
2023/05/08 13:14:12;;;;;;;3.57;0.60;;;;;;;;;;4975582;28;20023;-82
2023/05/08 13:16:41;;;;;;;3.40;0.70;;;;;;;;;;4993145;28;20255;-78
2023/05/08 13:19:06;;;;;;;5.75;0.50;;;;;;;;;;4992866;28;20339;-83
2023/05/08 13:21:31;;;;;;;4.27;0.43;;;;;;;;;;4994522;28;20441;-79
2023/05/08 13:23:56;;;;;;;2.27;0.30;;;;;;;;;;5011086;28;20550;-78
2023/05/08 13:26:23;;;;;;;5.35;0.68;;;;;;;;;;5004586;28;20828;-79
2023/05/08 13:28:48;;;;;;;1.98;0.57;;;;;;;;;;5005002;28;20026;-79
2023/05/08 13:31:13;;;;;;;1.23;0.30;;;;;;;;;;4993646;28;20029;-79
2023/05/08 13:33:39;;;;;;;0.77;0.32;;;;;;;;;;5002482;28;20598;-79
2023/05/08 13:36:04;;;;;;;33.67;1.23;;;;;;;;;;4995656;28;20085;-79
2023/05/08 13:38:29;;;;;;;0.50;0.30;;;;;;;;;;4992284;28;20419;-87
2023/05/08 13:40:54;;;;;;;0.65;0.25;;;;;;;;;;5008969;28;20049;-88
2023/05/08 13:43:20;;;;;;;0.43;0.27;;;;;;;;;;4994007;28;20030;-88
2023/05/08 13:45:45;;;;;;;0.80;0.20;;;;;;;;;;5006910;28;20264;-87
2023/05/08 13:48:10;;;;;;;0.30;0.30;;;;;;;;;;4993513;28;20260;-87
2023/05/08 13:50:35;;;;;;;0.83;0.50;;;;;;;;;;4993474;28;20517;-88
2023/05/08 13:53:00;;;;;;;0.50;0.27;;;;;;;;;;4997254;28;20311;-88
2023/05/08 13:55:26;;;;;;;0.30;0.30;;;;;;;;;;4992466;28;20355;-88
2023/05/08 13:57:51;;;;;;;0.85;0.55;;;;;;;;;;4992509;28;20030;-88
2023/05/08 14:00:17;;;;;;;1.17;0.40;;;;;;;;;;4992243;28;20597;-88
2023/05/08 14:02:42;;;;;;;0.43;0.35;;;;;;;;;;4995213;28;20283;-88
2023/05/08 14:05:08;;;;;;;1.85;0.50;;;;;;;;;;4975117;28;20495;-89
2023/05/08 14:07:33;;;;;;;0.50;0.50;;;;;;;;;;4992320;28;20022;-88
2023/05/08 14:09:58;;;;;;;1.92;0.50;;;;;;;;;;4992369;28;20042;-88
2023/05/08 14:12:24;;;;;;;1.35;0.40;;;;;;;;;;4974994;28;20026;-88
2023/05/08 14:14:49;;;;;;;5.70;0.50;;;;;;;;;;4992236;28;20101;-88
2023/05/08 14:17:14;;;;;;;1.88;0.50;;;;;;;;;;5003885;28;20306;-88
2023/05/08 14:19:39;;;;;;;0.75;0.43;;;;;;;;;;4991702;28;20057;-89
2023/05/08 14:22:05;;;;;;;2.60;0.50;;;;;;;;;;4999788;28;20469;-89
2023/05/08 14:24:31;;;;;;;1.63;0.60;;;;;;;;;;5006203;28;20053;-89
2023/05/08 14:26:58;;;;;;;2.08;0.40;;;;;;;;;;4997497;28;20076;-88
2023/05/08 14:29:23;;;;;;;0.82;0.50;;;;;;;;;;5011385;28;20049;-88
2023/05/08 14:31:48;;;;;;;1.07;0.50;;;;;;;;;;4997547;28;20564;-87
2023/05/08 14:34:13;;;;;;;1.03;0.60;;;;;;;;;;4996275;28;20769;-87
2023/05/08 14:36:38;;;;;;;3.30;0.97;;;;;;;;;;5005659;28;20272;-87
2023/05/08 14:39:04;;;;;;;1.60;0.50;;;;;;;;;;4997670;28;20268;-88
2023/05/08 14:41:29;;;;;;;1.30;0.70;;;;;;;;;;4996104;28;20264;-88